Terminal Aerodrome Forecast
Issued by NWS Wakefield, VA

Home | Current Version | Previous Version | Text Only | Print | Product List | Glossary On
Versions: 1 2 3 4 5 6 7 8 9 10 11 12 13 14 15 16 17 18 19 20 21 22 23 24 25 26 27
752
FTUS41 KAKQ 301736
TAFSBY
TAF
KSBY 301736Z 3018/3118 18005KT 3SM -RA BR BKN009 OVC015
      TEMPO 3018/3020 1SM RA BR OVC009
     FM310000 VRB03KT 5SM BR VCSH OVC007
     FM310500 00000KT 2SM BR OVC003
     FM311500 06004KT P6SM SCT007 BKN080=

USA.gov is the U.S. government's official web portal to all federal, state and local government web resources and services.